sensor_id;sensor_type;location;lat;lon;timestamp;pressure;altitude;pressure_sealevel;temperature;humidity
76726;BME280;65651;53.154;17.916;2023-05-29T00:01:32;101352.91;;;9.41;61.14
76726;BME280;65651;53.154;17.916;2023-05-29T00:04:01;101354.48;;;9.37;61.27
76726;BME280;65651;53.154;17.916;2023-05-29T00:06:28;101359.93;;;9.32;61.24
76726;BME280;65651;53.154;17.916;2023-05-29T00:08:56;101361.05;;;9.27;61.67
76726;BME280;65651;53.154;17.916;2023-05-29T00:11:23;101362.18;;;9.22;61.59
76726;BME280;65651;53.154;17.916;2023-05-29T00:13:51;101361.45;;;9.17;62.09
76726;BME280;65651;53.154;17.916;2023-05-29T00:16:18;101361.98;;;9.12;62.03
76726;BME280;65651;53.154;17.916;2023-05-29T00:18:46;101359.61;;;9.09;61.98
76726;BME280;65651;53.154;17.916;2023-05-29T00:21:13;101359.38;;;9.02;62.22
76726;BME280;65651;53.154;17.916;2023-05-29T00:23:41;101358.87;;;8.98;62.40
76726;BME280;65651;53.154;17.916;2023-05-29T00:26:09;101362.67;;;8.92;62.48
76726;BME280;65651;53.154;17.916;2023-05-29T00:28:38;101362.04;;;8.86;62.53
76726;BME280;65651;53.154;17.916;2023-05-29T00:31:06;101360.08;;;8.81;62.65
76726;BME280;65651;53.154;17.916;2023-05-29T00:33:33;101357.04;;;8.77;62.75
76726;BME280;65651;53.154;17.916;2023-05-29T00:36:00;101357.78;;;8.74;63.09
76726;BME280;65651;53.154;17.916;2023-05-29T00:38:28;101359.71;;;8.70;63.04
76726;BME280;65651;53.154;17.916;2023-05-29T00:40:55;101360.30;;;8.64;63.33
76726;BME280;65651;53.154;17.916;2023-05-29T00:43:22;101360.41;;;8.60;63.17
76726;BME280;65651;53.154;17.916;2023-05-29T00:45:50;101360.36;;;8.56;63.62
76726;BME280;65651;53.154;17.916;2023-05-29T00:48:20;101364.06;;;8.52;63.78
76726;BME280;65651;53.154;17.916;2023-05-29T00:50:49;101362.05;;;8.48;63.75
76726;BME280;65651;53.154;17.916;2023-05-29T00:53:23;101360.21;;;8.44;64.03
76726;BME280;65651;53.154;17.916;2023-05-29T00:55:51;101363.63;;;8.39;64.07
76726;BME280;65651;53.154;17.916;2023-05-29T00:58:20;101361.13;;;8.33;64.52
76726;BME280;65651;53.154;17.916;2023-05-29T01:00:47;101360.46;;;8.28;64.64
76726;BME280;65651;53.154;17.916;2023-05-29T01:03:15;101361.35;;;8.26;64.75
76726;BME280;65651;53.154;17.916;2023-05-29T01:05:43;101365.70;;;8.22;64.83
76726;BME280;65651;53.154;17.916;2023-05-29T01:08:15;101367.80;;;8.20;65.05
76726;BME280;65651;53.154;17.916;2023-05-29T01:10:42;101370.67;;;8.18;65.28
76726;BME280;65651;53.154;17.916;2023-05-29T01:13:22;101371.19;;;8.16;65.22
76726;BME280;65651;53.154;17.916;2023-05-29T01:16:37;101365.13;;;8.13;65.33
76726;BME280;65651;53.154;17.916;2023-05-29T01:24:37;101364.44;;;8.05;65.76
76726;BME280;65651;53.154;17.916;2023-05-29T01:27:09;101362.05;;;8.01;65.74
76726;BME280;65651;53.154;17.916;2023-05-29T01:29:39;101360.13;;;7.98;65.82
76726;BME280;65651;53.154;17.916;2023-05-29T01:32:10;101360.33;;;7.98;66.23
76726;BME280;65651;53.154;17.916;2023-05-29T01:34:38;101354.92;;;7.96;66.32
76726;BME280;65651;53.154;17.916;2023-05-29T01:37:06;101357.02;;;7.94;66.39
76726;BME280;65651;53.154;17.916;2023-05-29T01:39:34;101357.55;;;7.92;66.38
76726;BME280;65651;53.154;17.916;2023-05-29T01:42:02;101360.20;;;7.90;66.70
76726;BME280;65651;53.154;17.916;2023-05-29T01:44:30;101370.04;;;7.88;66.80
76726;BME280;65651;53.154;17.916;2023-05-29T01:46:58;101370.35;;;7.86;67.05
76726;BME280;65651;53.154;17.916;2023-05-29T01:49:28;101371.19;;;7.84;66.86
76726;BME280;65651;53.154;17.916;2023-05-29T01:51:58;101377.79;;;7.81;66.57
76726;BME280;65651;53.154;17.916;2023-05-29T01:54:25;101379.88;;;7.80;67.08
76726;BME280;65651;53.154;17.916;2023-05-29T01:56:52;101378.14;;;7.79;67.19
76726;BME280;65651;53.154;17.916;2023-05-29T01:59:21;101375.83;;;7.79;67.37
76726;BME280;65651;53.154;17.916;2023-05-29T02:01:48;101377.80;;;7.76;67.59
76726;BME280;65651;53.154;17.916;2023-05-29T02:04:16;101378.30;;;7.77;67.32
76726;BME280;65651;53.154;17.916;2023-05-29T02:06:43;101380.33;;;7.76;67.62
76726;BME280;65651;53.154;17.916;2023-05-29T02:09:10;101377.65;;;7.74;67.52
76726;BME280;65651;53.154;17.916;2023-05-29T02:11:38;101370.48;;;7.71;67.83
76726;BME280;65651;53.154;17.916;2023-05-29T02:14:11;101376.77;;;7.68;67.71
76726;BME280;65651;53.154;17.916;2023-05-29T02:16:39;101376.98;;;7.65;68.00
76726;BME280;65651;53.154;17.916;2023-05-29T02:19:07;101376.43;;;7.60;67.99
76726;BME280;65651;53.154;17.916;2023-05-29T02:21:38;101378.98;;;7.57;68.18
76726;BME280;65651;53.154;17.916;2023-05-29T02:24:06;101375.38;;;7.55;68.04
76726;BME280;65651;53.154;17.916;2023-05-29T02:26:34;101377.98;;;7.56;68.52
76726;BME280;65651;53.154;17.916;2023-05-29T02:29:03;101378.16;;;7.53;68.18
76726;BME280;65651;53.154;17.916;2023-05-29T02:31:32;101379.56;;;7.51;68.50
76726;BME280;65651;53.154;17.916;2023-05-29T02:34:00;101374.55;;;7.49;68.63
76726;BME280;65651;53.154;17.916;2023-05-29T02:36:27;101379.42;;;7.48;68.59
76726;BME280;65651;53.154;17.916;2023-05-29T02:38:55;101377.45;;;7.48;68.74
76726;BME280;65651;53.154;17.916;2023-05-29T02:41:22;101375.89;;;7.47;68.67
76726;BME280;65651;53.154;17.916;2023-05-29T02:43:51;101369.98;;;7.47;69.00
76726;BME280;65651;53.154;17.916;2023-05-29T02:46:22;101364.23;;;7.48;68.94
76726;BME280;65651;53.154;17.916;2023-05-29T02:48:50;101363.48;;;7.49;69.20
76726;BME280;65651;53.154;17.916;2023-05-29T02:51:17;101364.67;;;7.50;69.03
76726;BME280;65651;53.154;17.916;2023-05-29T02:53:44;101362.78;;;7.51;69.02
76726;BME280;65651;53.154;17.916;2023-05-29T02:56:12;101363.08;;;7.52;69.24
76726;BME280;65651;53.154;17.916;2023-05-29T02:58:39;101366.86;;;7.54;69.06
76726;BME280;65651;53.154;17.916;2023-05-29T03:01:11;101365.27;;;7.57;69.15
76726;BME280;65651;53.154;17.916;2023-05-29T03:03:38;101363.91;;;7.61;69.13
76726;BME280;65651;53.154;17.916;2023-05-29T03:06:06;101363.24;;;7.65;69.19
76726;BME280;65651;53.154;17.916;2023-05-29T03:08:35;101367.81;;;7.69;69.31
76726;BME280;65651;53.154;17.916;2023-05-29T03:11:07;101368.59;;;7.72;69.10
76726;BME280;65651;53.154;17.916;2023-05-29T03:13:38;101370.22;;;7.77;69.42
76726;BME280;65651;53.154;17.916;2023-05-29T03:16:08;101372.89;;;7.85;69.32
76726;BME280;65651;53.154;17.916;2023-05-29T03:18:36;101374.50;;;7.92;69.20
76726;BME280;65651;53.154;17.916;2023-05-29T03:21:04;101367.33;;;8.00;69.42
76726;BME280;65651;53.154;17.916;2023-05-29T03:23:33;101370.24;;;8.09;69.25
76726;BME280;65651;53.154;17.916;2023-05-29T03:26:02;101374.20;;;8.19;69.61
76726;BME280;65651;53.154;17.916;2023-05-29T03:28:31;101378.38;;;8.30;69.55
76726;BME280;65651;53.154;17.916;2023-05-29T03:30:58;101377.20;;;8.44;69.40
76726;BME280;65651;53.154;17.916;2023-05-29T03:33:26;101379.91;;;8.61;69.22
76726;BME280;65651;53.154;17.916;2023-05-29T03:36:23;101379.98;;;8.81;69.13
76726;BME280;65651;53.154;17.916;2023-05-29T03:38:50;101381.28;;;8.99;68.92
76726;BME280;65651;53.154;17.916;2023-05-29T03:41:18;101381.41;;;9.18;69.16
76726;BME280;65651;53.154;17.916;2023-05-29T03:43:46;101381.48;;;9.61;68.57
76726;BME280;65651;53.154;17.916;2023-05-29T03:46:16;101379.24;;;10.53;67.66
76726;BME280;65651;53.154;17.916;2023-05-29T03:48:44;101381.87;;;11.80;66.60
76726;BME280;65651;53.154;17.916;2023-05-29T03:51:11;101377.54;;;13.11;65.35
76726;BME280;65651;53.154;17.916;2023-05-29T03:53:39;101368.54;;;14.36;64.28
76726;BME280;65651;53.154;17.916;2023-05-29T03:56:09;101370.52;;;15.59;62.92
76726;BME280;65651;53.154;17.916;2023-05-29T03:58:37;101364.91;;;16.69;61.68
76726;BME280;65651;53.154;17.916;2023-05-29T04:01:05;101364.41;;;17.66;60.29
76726;BME280;65651;53.154;17.916;2023-05-29T04:03:33;101365.99;;;18.58;59.01
76726;BME280;65651;53.154;17.916;2023-05-29T04:06:00;101370.96;;;19.45;57.79
76726;BME280;65651;53.154;17.916;2023-05-29T04:08:28;101372.55;;;20.30;56.23
76726;BME280;65651;53.154;17.916;2023-05-29T04:10:55;101370.16;;;21.14;54.90
76726;BME280;65651;53.154;17.916;2023-05-29T04:13:23;101369.05;;;21.90;53.47
76726;BME280;65651;53.154;17.916;2023-05-29T04:15:50;101364.19;;;22.58;51.66
76726;BME280;65651;53.154;17.916;2023-05-29T04:18:20;101365.52;;;23.03;49.64
76726;BME280;65651;53.154;17.916;2023-05-29T04:20:49;101362.80;;;23.43;48.49
76726;BME280;65651;53.154;17.916;2023-05-29T04:23:17;101365.39;;;24.05;47.00
76726;BME280;65651;53.154;17.916;2023-05-29T04:25:44;101360.38;;;24.62;45.34
76726;BME280;65651;53.154;17.916;2023-05-29T04:28:12;101355.85;;;25.09;44.05
76726;BME280;65651;53.154;17.916;2023-05-29T04:30:39;101357.70;;;25.72;42.57
76726;BME280;65651;53.154;17.916;2023-05-29T04:33:09;101361.83;;;26.20;40.64
76726;BME280;65651;53.154;17.916;2023-05-29T04:35:41;101370.05;;;26.49;39.49
76726;BME280;65651;53.154;17.916;2023-05-29T04:38:12;101374.67;;;26.88;37.93
76726;BME280;65651;53.154;17.916;2023-05-29T04:40:39;101375.38;;;27.34;36.76
76726;BME280;65651;53.154;17.916;2023-05-29T04:43:07;101375.77;;;27.87;35.22
76726;BME280;65651;53.154;17.916;2023-05-29T04:45:48;101372.96;;;28.35;34.01
76726;BME280;65651;53.154;17.916;2023-05-29T04:48:15;101367.23;;;28.86;32.79
76726;BME280;65651;53.154;17.916;2023-05-29T04:50:43;101372.95;;;29.30;31.51
76726;BME280;65651;53.154;17.916;2023-05-29T04:53:11;101372.67;;;29.74;30.84
76726;BME280;65651;53.154;17.916;2023-05-29T04:55:38;101367.46;;;30.34;29.59
76726;BME280;65651;53.154;17.916;2023-05-29T04:58:06;101364.32;;;30.89;28.58
76726;BME280;65651;53.154;17.916;2023-05-29T05:00:34;101366.17;;;31.38;27.44
76726;BME280;65651;53.154;17.916;2023-05-29T05:03:03;101366.50;;;31.58;26.38
76726;BME280;65651;53.154;17.916;2023-05-29T05:05:31;101364.14;;;31.87;25.65
76726;BME280;65651;53.154;17.916;2023-05-29T05:08:18;101367.94;;;32.18;24.73
76726;BME280;65651;53.154;17.916;2023-05-29T05:10:47;101365.63;;;32.38;24.30
76726;BME280;65651;53.154;17.916;2023-05-29T05:13:18;101363.35;;;32.52;23.32
76726;BME280;65651;53.154;17.916;2023-05-29T05:15:46;101364.13;;;32.51;23.27
76726;BME280;65651;53.154;17.916;2023-05-29T05:18:15;101365.60;;;32.83;22.96
76726;BME280;65651;53.154;17.916;2023-05-29T05:20:43;101371.14;;;33.28;22.34
76726;BME280;65651;53.154;17.916;2023-05-29T05:23:11;101372.71;;;33.57;21.90
76726;BME280;65651;53.154;17.916;2023-05-29T05:25:41;101371.89;;;33.73;21.63
76726;BME280;65651;53.154;17.916;2023-05-29T05:28:09;101370.24;;;34.11;20.98
76726;BME280;65651;53.154;17.916;2023-05-29T05:30:37;101372.64;;;34.31;20.61
76726;BME280;65651;53.154;17.916;2023-05-29T05:33:04;101373.02;;;34.57;20.35
76726;BME280;65651;53.154;17.916;2023-05-29T05:35:33;101371.50;;;34.88;19.75
76726;BME280;65651;53.154;17.916;2023-05-29T05:38:00;101376.50;;;34.84;19.20
76726;BME280;65651;53.154;17.916;2023-05-29T05:40:28;101377.55;;;35.07;19.05
76726;BME280;65651;53.154;17.916;2023-05-29T05:43:07;101378.43;;;35.51;18.51
76726;BME280;65651;53.154;17.916;2023-05-29T05:45:59;101377.81;;;35.84;18.07
76726;BME280;65651;53.154;17.916;2023-05-29T05:48:27;101379.88;;;36.16;18.11
76726;BME280;65651;53.154;17.916;2023-05-29T05:50:55;101376.58;;;36.01;17.47
76726;BME280;65651;53.154;17.916;2023-05-29T05:53:22;101383.15;;;36.19;17.37
76726;BME280;65651;53.154;17.916;2023-05-29T05:55:49;101391.56;;;36.38;17.08
76726;BME280;65651;53.154;17.916;2023-05-29T05:58:18;101392.95;;;36.34;16.70
76726;BME280;65651;53.154;17.916;2023-05-29T06:00:46;101395.52;;;36.45;16.79
76726;BME280;65651;53.154;17.916;2023-05-29T06:03:13;101394.15;;;36.15;16.23
76726;BME280;65651;53.154;17.916;2023-05-29T06:05:52;101395.67;;;36.27;16.21
76726;BME280;65651;53.154;17.916;2023-05-29T06:08:21;101390.48;;;35.78;15.85
76726;BME280;65651;53.154;17.916;2023-05-29T06:10:48;101388.04;;;35.33;16.21
76726;BME280;65651;53.154;17.916;2023-05-29T06:13:19;101383.48;;;34.53;16.75
76726;BME280;65651;53.154;17.916;2023-05-29T06:15:50;101382.84;;;34.09;17.32
76726;BME280;65651;53.154;17.916;2023-05-29T06:18:17;101385.65;;;34.97;17.06
76726;BME280;65651;53.154;17.916;2023-05-29T06:20:44;101382.45;;;35.63;16.90
76726;BME280;65651;53.154;17.916;2023-05-29T06:23:13;101382.71;;;36.08;16.62
76726;BME280;65651;53.154;17.916;2023-05-29T06:25:40;101389.09;;;36.39;16.27
76726;BME280;65651;53.154;17.916;2023-05-29T06:28:08;101382.18;;;36.72;16.26
76726;BME280;65651;53.154;17.916;2023-05-29T06:30:36;101374.61;;;37.74;15.91
76726;BME280;65651;53.154;17.916;2023-05-29T06:33:06;101373.33;;;38.39;15.52
76726;BME280;65651;53.154;17.916;2023-05-29T06:35:35;101374.91;;;38.80;15.18
76726;BME280;65651;53.154;17.916;2023-05-29T06:38:02;101373.86;;;39.48;14.70
76726;BME280;65651;53.154;17.916;2023-05-29T06:40:30;101372.64;;;39.93;14.27
76726;BME280;65651;53.154;17.916;2023-05-29T06:42:57;101369.42;;;39.95;14.16
76726;BME280;65651;53.154;17.916;2023-05-29T06:45:40;101375.11;;;40.27;13.77
76726;BME280;65651;53.154;17.916;2023-05-29T06:48:08;101376.70;;;39.95;13.77
76726;BME280;65651;53.154;17.916;2023-05-29T06:50:35;101372.33;;;39.96;13.78
76726;BME280;65651;53.154;17.916;2023-05-29T06:53:21;101373.17;;;40.45;13.27
76726;BME280;65651;53.154;17.916;2023-05-29T06:55:51;101375.75;;;40.55;13.22
76726;BME280;65651;53.154;17.916;2023-05-29T06:58:19;101379.69;;;40.48;13.07
76726;BME280;65651;53.154;17.916;2023-05-29T07:00:46;101379.75;;;40.59;13.08
76726;BME280;65651;53.154;17.916;2023-05-29T07:03:29;101385.84;;;40.84;12.64
76726;BME280;65651;53.154;17.916;2023-05-29T07:05:57;101386.04;;;40.49;12.41
76726;BME280;65651;53.154;17.916;2023-05-29T07:08:27;101387.48;;;40.36;12.14
76726;BME280;65651;53.154;17.916;2023-05-29T07:10:55;101388.20;;;40.48;12.51
76726;BME280;65651;53.154;17.916;2023-05-29T07:13:25;101391.48;;;40.78;12.66
76726;BME280;65651;53.154;17.916;2023-05-29T07:15:53;101391.76;;;40.54;12.42
76726;BME280;65651;53.154;17.916;2023-05-29T07:18:25;101394.55;;;40.57;12.51
76726;BME280;65651;53.154;17.916;2023-05-29T07:20:56;101401.50;;;40.26;12.54
76726;BME280;65651;53.154;17.916;2023-05-29T07:23:26;101402.52;;;40.00;12.82
76726;BME280;65651;53.154;17.916;2023-05-29T07:25:54;101402.60;;;39.83;12.82
76726;BME280;65651;53.154;17.916;2023-05-29T07:28:21;101396.84;;;39.64;12.89
76726;BME280;65651;53.154;17.916;2023-05-29T07:30:48;101407.11;;;39.75;12.90
76726;BME280;65651;53.154;17.916;2023-05-29T07:33:16;101402.60;;;39.57;13.16
76726;BME280;65651;53.154;17.916;2023-05-29T07:35:44;101401.58;;;39.55;13.38
76726;BME280;65651;53.154;17.916;2023-05-29T07:38:12;101402.91;;;39.86;13.46
76726;BME280;65651;53.154;17.916;2023-05-29T07:40:40;101407.80;;;40.03;13.25
76726;BME280;65651;53.154;17.916;2023-05-29T07:43:12;101403.20;;;40.10;13.05
76726;BME280;65651;53.154;17.916;2023-05-29T07:45:53;101407.63;;;39.82;13.29
76726;BME280;65651;53.154;17.916;2023-05-29T07:48:21;101414.27;;;39.42;13.30
76726;BME280;65651;53.154;17.916;2023-05-29T07:50:48;101415.01;;;39.34;13.46
76726;BME280;65651;53.154;17.916;2023-05-29T07:53:16;101413.52;;;39.05;13.61
76726;BME280;65651;53.154;17.916;2023-05-29T07:55:45;101416.02;;;37.79;14.16
76726;BME280;65651;53.154;17.916;2023-05-29T07:58:12;101419.42;;;36.99;14.58
76726;BME280;65651;53.154;17.916;2023-05-29T08:00:40;101414.60;;;37.27;14.72
76726;BME280;65651;53.154;17.916;2023-05-29T08:03:08;101407.55;;;37.72;14.51
76726;BME280;65651;53.154;17.916;2023-05-29T08:05:54;101407.74;;;38.07;14.48
76726;BME280;65651;53.154;17.916;2023-05-29T08:08:22;101411.63;;;38.70;14.16
76726;BME280;65651;53.154;17.916;2023-05-29T08:10:50;101414.98;;;38.76;13.89
76726;BME280;65651;53.154;17.916;2023-05-29T08:13:17;101419.85;;;38.87;13.70
76726;BME280;65651;53.154;17.916;2023-05-29T08:15:45;101413.92;;;38.46;13.69
76726;BME280;65651;53.154;17.916;2023-05-29T08:18:13;101416.82;;;38.56;13.73
76726;BME280;65651;53.154;17.916;2023-05-29T08:20:41;101423.48;;;39.01;13.49
76726;BME280;65651;53.154;17.916;2023-05-29T08:23:10;101423.80;;;39.07;13.38
76726;BME280;65651;53.154;17.916;2023-05-29T08:25:37;101426.31;;;39.20;13.30
76726;BME280;65651;53.154;17.916;2023-05-29T08:28:04;101426.48;;;39.36;13.23
76726;BME280;65651;53.154;17.916;2023-05-29T08:30:32;101426.95;;;39.11;13.34
76726;BME280;65651;53.154;17.916;2023-05-29T08:33:02;101425.62;;;39.08;13.27
76726;BME280;65651;53.154;17.916;2023-05-29T08:35:30;101427.81;;;39.25;13.16
76726;BME280;65651;53.154;17.916;2023-05-29T08:37:57;101427.61;;;38.31;13.39
76726;BME280;65651;53.154;17.916;2023-05-29T08:40:27;101426.52;;;38.37;13.49
76726;BME280;65651;53.154;17.916;2023-05-29T08:43:21;101421.78;;;38.58;13.57
76726;BME280;65651;53.154;17.916;2023-05-29T08:45:54;101425.21;;;39.13;13.17
76726;BME280;65651;53.154;17.916;2023-05-29T08:48:23;101425.78;;;39.22;13.15
76726;BME280;65651;53.154;17.916;2023-05-29T08:50:55;101428.27;;;39.49;12.73
76726;BME280;65651;53.154;17.916;2023-05-29T08:53:23;101426.31;;;39.35;12.46
76726;BME280;65651;53.154;17.916;2023-05-29T08:55:54;101428.36;;;38.99;12.59
76726;BME280;65651;53.154;17.916;2023-05-29T08:58:22;101427.77;;;38.28;12.94
76726;BME280;65651;53.154;17.916;2023-05-29T09:00:50;101430.79;;;37.15;13.34
76726;BME280;65651;53.154;17.916;2023-05-29T09:03:18;101432.97;;;35.95;14.20
76726;BME280;65651;53.154;17.916;2023-05-29T09:05:48;101431.27;;;35.91;14.41
76726;BME280;65651;53.154;17.916;2023-05-29T09:08:16;101433.41;;;36.82;14.26
76726;BME280;65651;53.154;17.916;2023-05-29T09:10:44;101437.70;;;37.09;14.06
76726;BME280;65651;53.154;17.916;2023-05-29T09:13:12;101433.58;;;37.28;13.86
76726;BME280;65651;53.154;17.916;2023-05-29T09:15:40;101439.20;;;36.89;13.78
76726;BME280;65651;53.154;17.916;2023-05-29T09:18:10;101433.06;;;36.15;14.20
76726;BME280;65651;53.154;17.916;2023-05-29T09:20:37;101430.39;;;35.97;14.46
76726;BME280;65651;53.154;17.916;2023-05-29T09:23:07;101435.66;;;35.98;14.61
76726;BME280;65651;53.154;17.916;2023-05-29T09:25:40;101436.80;;;36.31;14.29
76726;BME280;65651;53.154;17.916;2023-05-29T09:28:09;101436.58;;;36.59;14.37
76726;BME280;65651;53.154;17.916;2023-05-29T09:30:44;101432.77;;;36.88;14.28
76726;BME280;65651;53.154;17.916;2023-05-29T09:33:14;101430.84;;;37.20;14.06
76726;BME280;65651;53.154;17.916;2023-05-29T09:35:46;101427.95;;;37.11;14.02
76726;BME280;65651;53.154;17.916;2023-05-29T09:38:18;101427.70;;;36.64;14.31
76726;BME280;65651;53.154;17.916;2023-05-29T09:40:46;101425.55;;;35.46;14.81
76726;BME280;65651;53.154;17.916;2023-05-29T09:45:45;101427.25;;;32.09;16.42
76726;BME280;65651;53.154;17.916;2023-05-29T09:48:22;101427.05;;;31.98;16.95
76726;BME280;65651;53.154;17.916;2023-05-29T09:50:50;101427.13;;;30.76;17.64
76726;BME280;65651;53.154;17.916;2023-05-29T09:53:23;101416.65;;;31.27;18.03
76726;BME280;65651;53.154;17.916;2023-05-29T09:55:54;101418.96;;;32.65;17.54
76726;BME280;65651;53.154;17.916;2023-05-29T09:58:22;101420.16;;;33.68;17.35
76726;BME280;65651;53.154;17.916;2023-05-29T10:00:51;101413.45;;;34.31;16.81
76726;BME280;65651;53.154;17.916;2023-05-29T10:03:19;101421.14;;;34.54;16.50
76726;BME280;65651;53.154;17.916;2023-05-29T10:05:55;101420.33;;;33.65;16.55
76726;BME280;65651;53.154;17.916;2023-05-29T10:08:25;101418.24;;;32.01;17.02
76726;BME280;65651;53.154;17.916;2023-05-29T10:10:59;101419.61;;;30.90;17.87
76726;BME280;65651;53.154;17.916;2023-05-29T10:13:34;101421.04;;;30.07;18.55
76726;BME280;65651;53.154;17.916;2023-05-29T10:16:03;101423.10;;;29.35;19.45
76726;BME280;65651;53.154;17.916;2023-05-29T10:18:43;101420.06;;;28.57;20.23
76726;BME280;65651;53.154;17.916;2023-05-29T10:21:12;101419.23;;;27.64;21.14
76726;BME280;65651;53.154;17.916;2023-05-29T10:23:46;101408.55;;;27.25;21.68
76726;BME280;65651;53.154;17.916;2023-05-29T10:26:19;101409.70;;;27.06;22.35
76726;BME280;65651;53.154;17.916;2023-05-29T10:31:33;101410.89;;;26.32;22.87
76726;BME280;65651;53.154;17.916;2023-05-29T10:34:29;101411.02;;;25.88;23.44
76726;BME280;65651;53.154;17.916;2023-05-29T10:39:32;101413.36;;;24.83;24.56
76726;BME280;65651;53.154;17.916;2023-05-29T10:42:00;101414.75;;;24.68;24.99
76726;BME280;65651;53.154;17.916;2023-05-29T10:49:26;101423.35;;;24.33;25.69
76726;BME280;65651;53.154;17.916;2023-05-29T10:51:53;101425.13;;;24.00;25.78
76726;BME280;65651;53.154;17.916;2023-05-29T10:54:24;101420.91;;;23.84;26.16
76726;BME280;65651;53.154;17.916;2023-05-29T10:56:56;101418.44;;;23.70;26.04
76726;BME280;65651;53.154;17.916;2023-05-29T10:59:23;101413.64;;;23.78;26.22
76726;BME280;65651;53.154;17.916;2023-05-29T11:01:55;101404.91;;;23.94;26.03
76726;BME280;65651;53.154;17.916;2023-05-29T11:06:53;101409.65;;;24.09;25.86
76726;BME280;65651;53.154;17.916;2023-05-29T11:09:32;101408.45;;;23.97;25.64
76726;BME280;65651;53.154;17.916;2023-05-29T11:14:53;101404.02;;;23.92;25.88
76726;BME280;65651;53.154;17.916;2023-05-29T11:17:30;101399.00;;;23.87;25.94
76726;BME280;65651;53.154;17.916;2023-05-29T11:20:01;101401.14;;;23.78;26.04
76726;BME280;65651;53.154;17.916;2023-05-29T11:25:30;101394.77;;;23.42;26.68
76726;BME280;65651;53.154;17.916;2023-05-29T11:28:01;101396.92;;;23.48;26.69
76726;BME280;65651;53.154;17.916;2023-05-29T11:30:30;101394.00;;;23.53;26.82
76726;BME280;65651;53.154;17.916;2023-05-29T11:33:01;101396.04;;;23.57;26.55
76726;BME280;65651;53.154;17.916;2023-05-29T11:35:33;101392.11;;;23.56;26.60
76726;BME280;65651;53.154;17.916;2023-05-29T11:38:02;101393.17;;;23.48;26.84
76726;BME280;65651;53.154;17.916;2023-05-29T11:40:36;101397.87;;;23.38;26.85
76726;BME280;65651;53.154;17.916;2023-05-29T11:43:04;101397.13;;;23.25;26.81
76726;BME280;65651;53.154;17.916;2023-05-29T11:45:32;101387.95;;;23.15;26.84
76726;BME280;65651;53.154;17.916;2023-05-29T11:48:02;101376.96;;;23.15;26.87
76726;BME280;65651;53.154;17.916;2023-05-29T11:50:31;101377.48;;;23.23;27.43
76726;BME280;65651;53.154;17.916;2023-05-29T11:53:00;101383.02;;;23.19;27.33
76726;BME280;65651;53.154;17.916;2023-05-29T11:55:28;101381.27;;;23.03;27.48
76726;BME280;65651;53.154;17.916;2023-05-29T11:58:00;101381.41;;;22.93;27.50
76726;BME280;65651;53.154;17.916;2023-05-29T12:00:36;101378.42;;;22.97;27.43
76726;BME280;65651;53.154;17.916;2023-05-29T12:03:04;101380.96;;;23.06;27.29
76726;BME280;65651;53.154;17.916;2023-05-29T12:05:45;101379.20;;;23.12;27.04
76726;BME280;65651;53.154;17.916;2023-05-29T12:08:12;101376.08;;;23.20;26.90
76726;BME280;65651;53.154;17.916;2023-05-29T12:10:49;101379.61;;;23.19;26.93
76726;BME280;65651;53.154;17.916;2023-05-29T12:13:19;101376.89;;;23.25;26.72
76726;BME280;65651;53.154;17.916;2023-05-29T12:15:48;101376.09;;;23.36;26.91
76726;BME280;65651;53.154;17.916;2023-05-29T12:18:16;101381.59;;;23.40;26.50
76726;BME280;65651;53.154;17.916;2023-05-29T12:20:43;101381.52;;;23.38;26.60
76726;BME280;65651;53.154;17.916;2023-05-29T12:23:11;101384.50;;;23.45;26.75
76726;BME280;65651;53.154;17.916;2023-05-29T12:25:40;101375.90;;;23.59;26.61
76726;BME280;65651;53.154;17.916;2023-05-29T12:28:16;101375.78;;;23.75;26.58
76726;BME280;65651;53.154;17.916;2023-05-29T12:30:44;101374.44;;;23.91;26.30
76726;BME280;65651;53.154;17.916;2023-05-29T12:33:32;101371.75;;;23.99;26.15
76726;BME280;65651;53.154;17.916;2023-05-29T12:36:07;101363.47;;;23.95;26.02
76726;BME280;65651;53.154;17.916;2023-05-29T12:38:49;101363.84;;;23.99;26.01
76726;BME280;65651;53.154;17.916;2023-05-29T12:41:37;101365.75;;;23.97;26.01
76726;BME280;65651;53.154;17.916;2023-05-29T12:44:06;101368.33;;;23.97;25.71
76726;BME280;65651;53.154;17.916;2023-05-29T12:46:42;101367.66;;;23.94;25.77
76726;BME280;65651;53.154;17.916;2023-05-29T12:49:17;101357.14;;;24.01;25.69
76726;BME280;65651;53.154;17.916;2023-05-29T12:51:47;101364.62;;;24.07;25.59
76726;BME280;65651;53.154;17.916;2023-05-29T12:54:16;101366.80;;;23.97;25.53
76726;BME280;65651;53.154;17.916;2023-05-29T12:56:44;101360.52;;;23.91;25.87
76726;BME280;65651;53.154;17.916;2023-05-29T12:59:13;101362.77;;;23.91;25.89
76726;BME280;65651;53.154;17.916;2023-05-29T13:01:41;101366.96;;;23.83;25.97
76726;BME280;65651;53.154;17.916;2023-05-29T13:04:09;101367.50;;;23.70;26.14
76726;BME280;65651;53.154;17.916;2023-05-29T13:06:39;101363.77;;;23.57;26.25
76726;BME280;65651;53.154;17.916;2023-05-29T13:09:06;101360.10;;;23.39;26.26
76726;BME280;65651;53.154;17.916;2023-05-29T13:11:35;101355.49;;;23.24;26.35
76726;BME280;65651;53.154;17.916;2023-05-29T13:14:02;101352.19;;;23.19;26.43
76726;BME280;65651;53.154;17.916;2023-05-29T13:16:32;101349.70;;;23.23;26.73
76726;BME280;65651;53.154;17.916;2023-05-29T13:18:59;101347.50;;;23.24;26.98
76726;BME280;65651;53.154;17.916;2023-05-29T13:21:27;101345.55;;;23.19;26.82
76726;BME280;65651;53.154;17.916;2023-05-29T13:23:54;101347.67;;;23.13;27.09